sensor_id;sensor_type;location;lat;lon;timestamp;P1;durP1;ratioP1;P2;durP2;ratioP2
12224;SDS011;6175;50.956;11.064;2023-02-11T00:01:17;24.42;;;16.33;;
12224;SDS011;6175;50.956;11.064;2023-02-11T00:03:47;22.75;;;15.95;;
12224;SDS011;6175;50.956;11.064;2023-02-11T00:06:14;23.33;;;15.73;;
12224;SDS011;6175;50.956;11.064;2023-02-11T00:08:41;24.38;;;16.55;;
12224;SDS011;6175;50.956;11.064;2023-02-11T00:11:10;25.10;;;17.80;;
12224;SDS011;6175;50.956;11.064;2023-02-11T00:13:40;24.10;;;15.85;;
12224;SDS011;6175;50.956;11.064;2023-02-11T00:16:08;25.15;;;15.80;;
12224;SDS011;6175;50.956;11.064;2023-02-11T00:18:35;25.17;;;16.70;;
12224;SDS011;6175;50.956;11.064;2023-02-11T00:21:06;25.00;;;16.80;;
12224;SDS011;6175;50.956;11.064;2023-02-11T00:23:33;23.27;;;16.05;;
12224;SDS011;6175;50.956;11.064;2023-02-11T00:26:01;22.95;;;16.02;;
12224;SDS011;6175;50.956;11.064;2023-02-11T00:28:28;22.95;;;15.55;;
12224;SDS011;6175;50.956;11.064;2023-02-11T00:30:56;22.40;;;15.27;;
12224;SDS011;6175;50.956;11.064;2023-02-11T00:33:25;25.65;;;16.90;;
12224;SDS011;6175;50.956;11.064;2023-02-11T00:35:52;23.38;;;15.82;;
12224;SDS011;6175;50.956;11.064;2023-02-11T00:38:19;24.38;;;16.63;;
12224;SDS011;6175;50.956;11.064;2023-02-11T00:40:46;26.25;;;17.63;;
12224;SDS011;6175;50.956;11.064;2023-02-11T00:43:13;24.77;;;17.95;;
12224;SDS011;6175;50.956;11.064;2023-02-11T00:45:40;27.88;;;17.70;;
12224;SDS011;6175;50.956;11.064;2023-02-11T00:48:09;26.67;;;17.08;;
12224;SDS011;6175;50.956;11.064;2023-02-11T00:50:36;19.95;;;15.50;;
12224;SDS011;6175;50.956;11.064;2023-02-11T00:53:03;27.02;;;16.52;;
12224;SDS011;6175;50.956;11.064;2023-02-11T00:55:30;25.23;;;16.08;;
12224;SDS011;6175;50.956;11.064;2023-02-11T00:57:57;26.40;;;17.38;;
12224;SDS011;6175;50.956;11.064;2023-02-11T01:00:24;24.48;;;17.30;;
12224;SDS011;6175;50.956;11.064;2023-02-11T01:02:52;24.00;;;16.02;;
12224;SDS011;6175;50.956;11.064;2023-02-11T01:05:20;25.35;;;16.85;;
12224;SDS011;6175;50.956;11.064;2023-02-11T01:07:47;25.60;;;16.40;;
12224;SDS011;6175;50.956;11.064;2023-02-11T01:10:14;24.08;;;16.85;;
12224;SDS011;6175;50.956;11.064;2023-02-11T01:12:41;26.48;;;17.40;;
12224;SDS011;6175;50.956;11.064;2023-02-11T01:15:10;26.45;;;16.98;;
12224;SDS011;6175;50.956;11.064;2023-02-11T01:17:38;24.95;;;16.88;;
12224;SDS011;6175;50.956;11.064;2023-02-11T01:20:06;25.85;;;17.40;;
12224;SDS011;6175;50.956;11.064;2023-02-11T01:22:40;26.50;;;17.60;;
12224;SDS011;6175;50.956;11.064;2023-02-11T01:25:07;25.83;;;16.75;;
12224;SDS011;6175;50.956;11.064;2023-02-11T01:27:34;25.10;;;16.58;;
12224;SDS011;6175;50.956;11.064;2023-02-11T01:30:01;26.83;;;16.48;;
12224;SDS011;6175;50.956;11.064;2023-02-11T01:32:29;25.45;;;16.35;;
12224;SDS011;6175;50.956;11.064;2023-02-11T01:34:56;24.23;;;17.13;;
12224;SDS011;6175;50.956;11.064;2023-02-11T01:37:22;27.63;;;17.42;;
12224;SDS011;6175;50.956;11.064;2023-02-11T01:39:51;27.70;;;17.23;;
12224;SDS011;6175;50.956;11.064;2023-02-11T01:42:18;25.63;;;16.95;;
12224;SDS011;6175;50.956;11.064;2023-02-11T01:44:47;22.77;;;15.85;;
12224;SDS011;6175;50.956;11.064;2023-02-11T01:47:15;22.77;;;15.82;;
12224;SDS011;6175;50.956;11.064;2023-02-11T01:49:43;26.70;;;17.15;;
12224;SDS011;6175;50.956;11.064;2023-02-11T01:52:13;27.42;;;17.80;;
12224;SDS011;6175;50.956;11.064;2023-02-11T01:54:46;28.90;;;17.02;;
12224;SDS011;6175;50.956;11.064;2023-02-11T01:57:37;27.70;;;17.33;;
12224;SDS011;6175;50.956;11.064;2023-02-11T02:00:08;24.00;;;16.45;;
12224;SDS011;6175;50.956;11.064;2023-02-11T02:02:38;24.50;;;16.35;;
12224;SDS011;6175;50.956;11.064;2023-02-11T02:05:07;26.17;;;17.25;;
12224;SDS011;6175;50.956;11.064;2023-02-11T02:07:43;24.13;;;16.38;;
12224;SDS011;6175;50.956;11.064;2023-02-11T02:10:17;27.95;;;17.20;;
12224;SDS011;6175;50.956;11.064;2023-02-11T02:12:49;22.98;;;16.77;;
12224;SDS011;6175;50.956;11.064;2023-02-11T02:15:17;27.77;;;17.52;;
12224;SDS011;6175;50.956;11.064;2023-02-11T02:17:48;30.00;;;17.58;;
12224;SDS011;6175;50.956;11.064;2023-02-11T02:23:31;25.00;;;17.05;;
12224;SDS011;6175;50.956;11.064;2023-02-11T02:26:15;28.65;;;17.63;;
12224;SDS011;6175;50.956;11.064;2023-02-11T02:29:21;26.63;;;17.23;;
12224;SDS011;6175;50.956;11.064;2023-02-11T02:35:14;28.38;;;17.92;;
12224;SDS011;6175;50.956;11.064;2023-02-11T02:37:50;25.58;;;16.48;;
12224;SDS011;6175;50.956;11.064;2023-02-11T02:40:23;27.75;;;17.25;;
12224;SDS011;6175;50.956;11.064;2023-02-11T02:42:54;27.35;;;16.45;;
12224;SDS011;6175;50.956;11.064;2023-02-11T02:45:22;23.15;;;16.00;;
12224;SDS011;6175;50.956;11.064;2023-02-11T02:47:50;25.25;;;16.40;;
12224;SDS011;6175;50.956;11.064;2023-02-11T02:50:20;25.85;;;16.10;;
12224;SDS011;6175;50.956;11.064;2023-02-11T02:52:55;24.25;;;16.05;;
12224;SDS011;6175;50.956;11.064;2023-02-11T02:55:35;24.77;;;16.35;;
12224;SDS011;6175;50.956;11.064;2023-02-11T02:58:22;26.80;;;17.10;;
12224;SDS011;6175;50.956;11.064;2023-02-11T03:01:06;26.30;;;16.85;;
12224;SDS011;6175;50.956;11.064;2023-02-11T03:03:40;23.75;;;16.33;;
12224;SDS011;6175;50.956;11.064;2023-02-11T03:06:16;24.27;;;16.27;;
12224;SDS011;6175;50.956;11.064;2023-02-11T03:08:52;26.00;;;16.05;;
12224;SDS011;6175;50.956;11.064;2023-02-11T03:11:24;24.98;;;16.30;;
12224;SDS011;6175;50.956;11.064;2023-02-11T03:13:52;26.98;;;17.10;;
12224;SDS011;6175;50.956;11.064;2023-02-11T03:16:22;27.15;;;16.67;;
12224;SDS011;6175;50.956;11.064;2023-02-11T03:18:53;26.15;;;16.30;;
12224;SDS011;6175;50.956;11.064;2023-02-11T03:21:25;25.92;;;16.88;;
12224;SDS011;6175;50.956;11.064;2023-02-11T03:23:54;26.33;;;16.08;;
12224;SDS011;6175;50.956;11.064;2023-02-11T03:26:27;27.20;;;16.85;;
12224;SDS011;6175;50.956;11.064;2023-02-11T03:28:59;25.08;;;16.83;;
12224;SDS011;6175;50.956;11.064;2023-02-11T03:31:33;31.27;;;19.08;;
12224;SDS011;6175;50.956;11.064;2023-02-11T03:34:05;27.70;;;17.48;;
12224;SDS011;6175;50.956;11.064;2023-02-11T03:36:39;28.90;;;17.55;;
12224;SDS011;6175;50.956;11.064;2023-02-11T03:39:11;27.90;;;18.40;;
12224;SDS011;6175;50.956;11.064;2023-02-11T03:41:40;26.13;;;17.63;;
12224;SDS011;6175;50.956;11.064;2023-02-11T03:44:08;29.45;;;19.05;;
12224;SDS011;6175;50.956;11.064;2023-02-11T03:46:39;31.63;;;18.88;;
12224;SDS011;6175;50.956;11.064;2023-02-11T03:49:10;29.98;;;19.33;;
12224;SDS011;6175;50.956;11.064;2023-02-11T03:51:41;31.67;;;19.70;;
12224;SDS011;6175;50.956;11.064;2023-02-11T03:54:09;31.58;;;19.58;;
12224;SDS011;6175;50.956;11.064;2023-02-11T03:56:40;28.50;;;18.52;;
12224;SDS011;6175;50.956;11.064;2023-02-11T03:59:14;31.45;;;19.95;;
12224;SDS011;6175;50.956;11.064;2023-02-11T04:01:41;30.58;;;19.27;;
12224;SDS011;6175;50.956;11.064;2023-02-11T04:04:08;26.88;;;17.58;;
12224;SDS011;6175;50.956;11.064;2023-02-11T04:06:35;28.55;;;19.67;;
12224;SDS011;6175;50.956;11.064;2023-02-11T04:09:04;29.05;;;19.35;;
12224;SDS011;6175;50.956;11.064;2023-02-11T04:11:31;26.17;;;18.13;;
12224;SDS011;6175;50.956;11.064;2023-02-11T04:13:58;31.27;;;19.70;;
12224;SDS011;6175;50.956;11.064;2023-02-11T04:16:25;28.88;;;18.83;;
12224;SDS011;6175;50.956;11.064;2023-02-11T04:18:53;29.92;;;18.60;;
12224;SDS011;6175;50.956;11.064;2023-02-11T04:21:20;26.15;;;19.42;;
12224;SDS011;6175;50.956;11.064;2023-02-11T04:23:47;31.92;;;20.15;;
12224;SDS011;6175;50.956;11.064;2023-02-11T04:26:16;27.20;;;18.33;;
12224;SDS011;6175;50.956;11.064;2023-02-11T04:28:43;30.10;;;18.50;;
12224;SDS011;6175;50.956;11.064;2023-02-11T04:31:10;28.58;;;17.70;;
12224;SDS011;6175;50.956;11.064;2023-02-11T04:33:37;27.80;;;18.25;;
12224;SDS011;6175;50.956;11.064;2023-02-11T04:36:04;23.80;;;16.05;;
12224;SDS011;6175;50.956;11.064;2023-02-11T04:38:31;26.50;;;17.98;;
12224;SDS011;6175;50.956;11.064;2023-02-11T04:40:58;29.67;;;19.08;;
12224;SDS011;6175;50.956;11.064;2023-02-11T04:43:26;28.33;;;17.90;;
12224;SDS011;6175;50.956;11.064;2023-02-11T04:45:55;31.08;;;19.20;;
12224;SDS011;6175;50.956;11.064;2023-02-11T04:48:22;29.85;;;18.70;;
12224;SDS011;6175;50.956;11.064;2023-02-11T04:50:49;31.20;;;19.60;;
12224;SDS011;6175;50.956;11.064;2023-02-11T04:53:17;30.08;;;19.52;;
12224;SDS011;6175;50.956;11.064;2023-02-11T04:55:44;27.95;;;18.60;;
12224;SDS011;6175;50.956;11.064;2023-02-11T04:58:13;32.28;;;19.13;;
12224;SDS011;6175;50.956;11.064;2023-02-11T05:00:42;31.85;;;19.48;;
12224;SDS011;6175;50.956;11.064;2023-02-11T05:03:09;32.05;;;20.38;;
12224;SDS011;6175;50.956;11.064;2023-02-11T05:05:37;29.50;;;19.25;;
12224;SDS011;6175;50.956;11.064;2023-02-11T05:08:04;28.88;;;18.63;;
12224;SDS011;6175;50.956;11.064;2023-02-11T05:10:31;28.45;;;19.20;;
12224;SDS011;6175;50.956;11.064;2023-02-11T05:12:58;30.45;;;19.77;;
12224;SDS011;6175;50.956;11.064;2023-02-11T05:15:26;28.80;;;19.35;;
12224;SDS011;6175;50.956;11.064;2023-02-11T05:17:54;27.58;;;18.70;;
12224;SDS011;6175;50.956;11.064;2023-02-11T05:20:21;27.20;;;18.00;;
12224;SDS011;6175;50.956;11.064;2023-02-11T05:22:48;28.40;;;18.80;;
12224;SDS011;6175;50.956;11.064;2023-02-11T05:25:15;29.90;;;19.50;;
12224;SDS011;6175;50.956;11.064;2023-02-11T05:27:42;30.23;;;20.00;;
12224;SDS011;6175;50.956;11.064;2023-02-11T05:30:10;32.58;;;19.67;;
12224;SDS011;6175;50.956;11.064;2023-02-11T05:32:37;29.10;;;19.42;;
12224;SDS011;6175;50.956;11.064;2023-02-11T05:35:05;30.73;;;19.77;;
12224;SDS011;6175;50.956;11.064;2023-02-11T05:37:33;28.27;;;19.02;;
12224;SDS011;6175;50.956;11.064;2023-02-11T05:39:59;30.60;;;19.58;;
12224;SDS011;6175;50.956;11.064;2023-02-11T05:42:27;30.30;;;19.65;;
12224;SDS011;6175;50.956;11.064;2023-02-11T05:44:54;32.25;;;20.25;;
12224;SDS011;6175;50.956;11.064;2023-02-11T05:47:21;29.20;;;18.88;;
12224;SDS011;6175;50.956;11.064;2023-02-11T05:49:48;29.40;;;18.98;;
12224;SDS011;6175;50.956;11.064;2023-02-11T05:52:16;26.73;;;17.65;;
12224;SDS011;6175;50.956;11.064;2023-02-11T05:54:43;25.50;;;17.70;;
12224;SDS011;6175;50.956;11.064;2023-02-11T05:57:10;29.20;;;20.30;;
12224;SDS011;6175;50.956;11.064;2023-02-11T05:59:37;27.20;;;18.25;;
12224;SDS011;6175;50.956;11.064;2023-02-11T06:02:04;28.42;;;18.48;;
12224;SDS011;6175;50.956;11.064;2023-02-11T06:04:32;24.45;;;17.80;;
12224;SDS011;6175;50.956;11.064;2023-02-11T06:06:59;25.50;;;16.73;;
12224;SDS011;6175;50.956;11.064;2023-02-11T06:09:27;26.85;;;18.23;;
12224;SDS011;6175;50.956;11.064;2023-02-11T06:11:54;25.63;;;16.20;;
12224;SDS011;6175;50.956;11.064;2023-02-11T06:14:21;25.15;;;16.70;;
12224;SDS011;6175;50.956;11.064;2023-02-11T06:16:49;28.60;;;18.58;;
12224;SDS011;6175;50.956;11.064;2023-02-11T06:19:16;26.67;;;18.20;;
12224;SDS011;6175;50.956;11.064;2023-02-11T06:21:43;27.67;;;18.10;;
12224;SDS011;6175;50.956;11.064;2023-02-11T06:24:10;27.83;;;19.00;;
12224;SDS011;6175;50.956;11.064;2023-02-11T06:26:39;27.23;;;18.13;;
12224;SDS011;6175;50.956;11.064;2023-02-11T06:29:05;29.08;;;19.27;;
12224;SDS011;6175;50.956;11.064;2023-02-11T06:31:33;29.40;;;19.90;;
12224;SDS011;6175;50.956;11.064;2023-02-11T06:33:59;30.52;;;19.95;;
12224;SDS011;6175;50.956;11.064;2023-02-11T06:36:26;29.15;;;19.02;;
12224;SDS011;6175;50.956;11.064;2023-02-11T06:38:53;27.90;;;19.13;;
12224;SDS011;6175;50.956;11.064;2023-02-11T06:41:20;25.83;;;18.45;;
12224;SDS011;6175;50.956;11.064;2023-02-11T06:43:49;25.20;;;17.88;;
12224;SDS011;6175;50.956;11.064;2023-02-11T06:46:17;29.27;;;18.73;;
12224;SDS011;6175;50.956;11.064;2023-02-11T06:48:44;23.60;;;17.90;;
12224;SDS011;6175;50.956;11.064;2023-02-11T06:51:12;28.33;;;19.13;;
12224;SDS011;6175;50.956;11.064;2023-02-11T06:53:42;30.15;;;20.25;;
12224;SDS011;6175;50.956;11.064;2023-02-11T06:56:12;28.25;;;19.55;;
12224;SDS011;6175;50.956;11.064;2023-02-11T06:58:41;27.92;;;19.00;;
12224;SDS011;6175;50.956;11.064;2023-02-11T07:01:10;32.08;;;20.38;;
12224;SDS011;6175;50.956;11.064;2023-02-11T07:03:39;29.42;;;20.25;;
12224;SDS011;6175;50.956;11.064;2023-02-11T07:06:09;26.73;;;18.55;;
12224;SDS011;6175;50.956;11.064;2023-02-11T07:08:38;29.67;;;19.25;;
12224;SDS011;6175;50.956;11.064;2023-02-11T07:11:07;27.65;;;18.20;;
12224;SDS011;6175;50.956;11.064;2023-02-11T07:13:34;30.65;;;19.88;;
12224;SDS011;6175;50.956;11.064;2023-02-11T07:16:03;30.95;;;19.88;;
12224;SDS011;6175;50.956;11.064;2023-02-11T07:18:31;30.02;;;19.73;;
12224;SDS011;6175;50.956;11.064;2023-02-11T07:20:58;30.27;;;20.67;;
12224;SDS011;6175;50.956;11.064;2023-02-11T07:23:25;28.88;;;19.77;;
12224;SDS011;6175;50.956;11.064;2023-02-11T07:25:52;28.70;;;19.70;;
12224;SDS011;6175;50.956;11.064;2023-02-11T07:28:20;29.67;;;20.40;;
12224;SDS011;6175;50.956;11.064;2023-02-11T07:30:47;31.23;;;20.40;;
12224;SDS011;6175;50.956;11.064;2023-02-11T07:33:14;28.13;;;19.55;;
12224;SDS011;6175;50.956;11.064;2023-02-11T07:35:42;30.48;;;20.45;;
12224;SDS011;6175;50.956;11.064;2023-02-11T07:38:09;28.30;;;19.65;;
12224;SDS011;6175;50.956;11.064;2023-02-11T07:40:36;30.00;;;20.40;;
12224;SDS011;6175;50.956;11.064;2023-02-11T07:43:03;30.65;;;19.92;;
12224;SDS011;6175;50.956;11.064;2023-02-11T07:45:30;29.65;;;20.20;;
12224;SDS011;6175;50.956;11.064;2023-02-11T07:47:57;27.77;;;19.25;;
12224;SDS011;6175;50.956;11.064;2023-02-11T07:50:24;29.23;;;20.75;;
12224;SDS011;6175;50.956;11.064;2023-02-11T07:52:53;28.10;;;19.20;;
12224;SDS011;6175;50.956;11.064;2023-02-11T07:55:20;29.92;;;20.88;;
12224;SDS011;6175;50.956;11.064;2023-02-11T07:57:47;29.63;;;21.00;;
12224;SDS011;6175;50.956;11.064;2023-02-11T08:00:15;32.20;;;22.00;;
12224;SDS011;6175;50.956;11.064;2023-02-11T08:02:42;30.63;;;21.58;;
12224;SDS011;6175;50.956;11.064;2023-02-11T08:05:09;33.03;;;21.40;;
12224;SDS011;6175;50.956;11.064;2023-02-11T08:07:36;35.83;;;22.67;;
12224;SDS011;6175;50.956;11.064;2023-02-11T08:10:06;31.75;;;20.88;;
12224;SDS011;6175;50.956;11.064;2023-02-11T08:12:33;28.83;;;20.90;;
12224;SDS011;6175;50.956;11.064;2023-02-11T08:15:00;31.92;;;20.20;;
12224;SDS011;6175;50.956;11.064;2023-02-11T08:17:27;29.27;;;19.95;;
12224;SDS011;6175;50.956;11.064;2023-02-11T08:19:54;34.22;;;21.33;;
12224;SDS011;6175;50.956;11.064;2023-02-11T08:22:21;33.83;;;21.35;;
12224;SDS011;6175;50.956;11.064;2023-02-11T08:24:48;29.50;;;20.67;;
12224;SDS011;6175;50.956;11.064;2023-02-11T08:27:16;31.20;;;20.98;;
12224;SDS011;6175;50.956;11.064;2023-02-11T08:29:43;29.90;;;21.05;;
12224;SDS011;6175;50.956;11.064;2023-02-11T08:32:10;31.65;;;21.02;;
12224;SDS011;6175;50.956;11.064;2023-02-11T08:34:37;31.52;;;21.35;;
12224;SDS011;6175;50.956;11.064;2023-02-11T08:37:04;33.47;;;22.13;;
12224;SDS011;6175;50.956;11.064;2023-02-11T08:39:33;31.55;;;22.80;;
12224;SDS011;6175;50.956;11.064;2023-02-11T08:42:00;35.42;;;22.55;;
12224;SDS011;6175;50.956;11.064;2023-02-11T08:44:29;31.50;;;21.67;;
12224;SDS011;6175;50.956;11.064;2023-02-11T08:46:56;34.00;;;21.92;;
12224;SDS011;6175;50.956;11.064;2023-02-11T08:49:23;32.85;;;21.15;;
12224;SDS011;6175;50.956;11.064;2023-02-11T08:51:50;29.10;;;20.77;;
12224;SDS011;6175;50.956;11.064;2023-02-11T08:54:18;30.92;;;21.63;;
12224;SDS011;6175;50.956;11.064;2023-02-11T08:56:49;32.72;;;21.63;;
12224;SDS011;6175;50.956;11.064;2023-02-11T08:59:17;30.90;;;21.67;;
12224;SDS011;6175;50.956;11.064;2023-02-11T09:01:45;34.85;;;21.95;;
12224;SDS011;6175;50.956;11.064;2023-02-11T09:04:12;32.35;;;20.77;;
12224;SDS011;6175;50.956;11.064;2023-02-11T09:06:39;31.10;;;20.90;;
12224;SDS011;6175;50.956;11.064;2023-02-11T09:09:09;29.45;;;20.77;;
12224;SDS011;6175;50.956;11.064;2023-02-11T09:11:37;29.02;;;20.73;;
12224;SDS011;6175;50.956;11.064;2023-02-11T09:14:05;29.50;;;20.05;;
12224;SDS011;6175;50.956;11.064;2023-02-11T09:16:34;32.30;;;20.23;;
12224;SDS011;6175;50.956;11.064;2023-02-11T09:19:03;28.60;;;19.92;;
12224;SDS011;6175;50.956;11.064;2023-02-11T09:21:30;30.02;;;20.63;;
12224;SDS011;6175;50.956;11.064;2023-02-11T09:23:57;30.35;;;20.17;;
12224;SDS011;6175;50.956;11.064;2023-02-11T09:26:25;25.65;;;19.92;;
12224;SDS011;6175;50.956;11.064;2023-02-11T09:28:53;29.42;;;19.35;;
12224;SDS011;6175;50.956;11.064;2023-02-11T09:31:21;27.73;;;19.50;;
12224;SDS011;6175;50.956;11.064;2023-02-11T09:33:50;30.38;;;19.00;;
12224;SDS011;6175;50.956;11.064;2023-02-11T09:36:21;27.02;;;18.23;;
12224;SDS011;6175;50.956;11.064;2023-02-11T09:38:49;28.77;;;18.80;;
12224;SDS011;6175;50.956;11.064;2023-02-11T09:41:20;27.23;;;18.05;;
12224;SDS011;6175;50.956;11.064;2023-02-11T09:43:58;27.52;;;19.20;;
12224;SDS011;6175;50.956;11.064;2023-02-11T09:46:30;23.65;;;18.02;;
12224;SDS011;6175;50.956;11.064;2023-02-11T09:48:59;25.88;;;18.30;;
12224;SDS011;6175;50.956;11.064;2023-02-11T09:51:31;27.35;;;18.60;;
12224;SDS011;6175;50.956;11.064;2023-02-11T09:54:05;25.13;;;17.38;;
12224;SDS011;6175;50.956;11.064;2023-02-11T09:56:38;25.90;;;18.30;;
12224;SDS011;6175;50.956;11.064;2023-02-11T09:59:05;24.23;;;18.00;;
12224;SDS011;6175;50.956;11.064;2023-02-11T10:01:37;27.85;;;18.63;;
12224;SDS011;6175;50.956;11.064;2023-02-11T10:04:11;26.45;;;17.83;;
12224;SDS011;6175;50.956;11.064;2023-02-11T10:06:46;24.85;;;18.17;;
12224;SDS011;6175;50.956;11.064;2023-02-11T10:09:25;25.83;;;17.42;;
12224;SDS011;6175;50.956;11.064;2023-02-11T10:12:13;23.02;;;16.77;;
12224;SDS011;6175;50.956;11.064;2023-02-11T10:14:52;24.48;;;16.73;;
12224;SDS011;6175;50.956;11.064;2023-02-11T10:17:40;25.45;;;17.30;;
12224;SDS011;6175;50.956;11.064;2023-02-11T10:20:22;22.35;;;16.95;;
12224;SDS011;6175;50.956;11.064;2023-02-11T10:22:56;27.98;;;17.45;;
12224;SDS011;6175;50.956;11.064;2023-02-11T10:25:27;20.90;;;15.57;;
12224;SDS011;6175;50.956;11.064;2023-02-11T10:28:00;23.85;;;17.05;;
12224;SDS011;6175;50.956;11.064;2023-02-11T10:30:38;22.48;;;16.30;;
12224;SDS011;6175;50.956;11.064;2023-02-11T10:33:11;21.58;;;16.45;;
12224;SDS011;6175;50.956;11.064;2023-02-11T10:35:45;22.90;;;15.63;;
12224;SDS011;6175;50.956;11.064;2023-02-11T10:38:13;22.60;;;16.13;;
12224;SDS011;6175;50.956;11.064;2023-02-11T10:40:40;21.27;;;15.68;;
12224;SDS011;6175;50.956;11.064;2023-02-11T10:43:09;20.45;;;16.02;;
12224;SDS011;6175;50.956;11.064;2023-02-11T10:45:39;22.17;;;16.02;;
12224;SDS011;6175;50.956;11.064;2023-02-11T10:51:13;22.35;;;17.10;;
12224;SDS011;6175;50.956;11.064;2023-02-11T10:53:44;22.85;;;16.08;;
12224;SDS011;6175;50.956;11.064;2023-02-11T10:56:13;23.15;;;15.98;;
12224;SDS011;6175;50.956;11.064;2023-02-11T10:58:53;20.77;;;16.15;;
12224;SDS011;6175;50.956;11.064;2023-02-11T11:01:22;22.77;;;15.10;;
12224;SDS011;6175;50.956;11.064;2023-02-11T11:04:02;22.23;;;16.00;;
12224;SDS011;6175;50.956;11.064;2023-02-11T11:06:29;19.80;;;14.88;;
12224;SDS011;6175;50.956;11.064;2023-02-11T11:08:58;21.30;;;16.27;;
12224;SDS011;6175;50.956;11.064;2023-02-11T11:11:26;22.17;;;15.88;;
12224;SDS011;6175;50.956;11.064;2023-02-11T11:13:54;23.60;;;16.15;;
12224;SDS011;6175;50.956;11.064;2023-02-11T11:16:23;19.50;;;14.30;;
12224;SDS011;6175;50.956;11.064;2023-02-11T11:18:51;20.27;;;14.75;;
12224;SDS011;6175;50.956;11.064;2023-02-11T11:21:20;21.52;;;14.85;;
12224;SDS011;6175;50.956;11.064;2023-02-11T11:23:50;21.38;;;14.50;;
12224;SDS011;6175;50.956;11.064;2023-02-11T11:26:21;19.42;;;13.75;;
12224;SDS011;6175;50.956;11.064;2023-02-11T11:28:51;21.08;;;15.13;;
12224;SDS011;6175;50.956;11.064;2023-02-11T11:31:21;20.17;;;14.52;;
12224;SDS011;6175;50.956;11.064;2023-02-11T11:33:52;19.33;;;13.88;;
12224;SDS011;6175;50.956;11.064;2023-02-11T11:36:21;20.58;;;14.43;;
12224;SDS011;6175;50.956;11.064;2023-02-11T11:38:56;21.40;;;14.45;;
12224;SDS011;6175;50.956;11.064;2023-02-11T11:41:27;20.90;;;14.05;;
12224;SDS011;6175;50.956;11.064;2023-02-11T11:43:56;21.10;;;13.93;;
12224;SDS011;6175;50.956;11.064;2023-02-11T11:46:27;18.40;;;13.27;;
12224;SDS011;6175;50.956;11.064;2023-02-11T11:48:59;19.05;;;13.93;;
12224;SDS011;6175;50.956;11.064;2023-02-11T11:51:33;17.35;;;13.25;;
12224;SDS011;6175;50.956;11.064;2023-02-11T11:54:02;17.90;;;12.95;;
12224;SDS011;6175;50.956;11.064;2023-02-11T11:56:36;16.90;;;11.77;;
12224;SDS011;6175;50.956;11.064;2023-02-11T11:59:09;19.35;;;13.00;;
12224;SDS011;6175;50.956;11.064;2023-02-11T12:01:41;17.52;;;13.30;;
12224;SDS011;6175;50.956;11.064;2023-02-11T12:04:20;19.73;;;13.70;;
12224;SDS011;6175;50.956;11.064;2023-02-11T12:07:01;17.08;;;13.05;;
12224;SDS011;6175;50.956;11.064;2023-02-11T12:09:44;14.20;;;11.90;;
12224;SDS011;6175;50.956;11.064;2023-02-11T12:12:24;17.25;;;12.60;;
12224;SDS011;6175;50.956;11.064;2023-02-11T12:15:02;15.70;;;12.13;;
12224;SDS011;6175;50.956;11.064;2023-02-11T12:17:50;17.27;;;13.20;;
12224;SDS011;6175;50.956;11.064;2023-02-11T12:20:31;16.02;;;12.30;;
12224;SDS011;6175;50.956;11.064;2023-02-11T12:23:11;16.45;;;12.10;;
12224;SDS011;6175;50.956;11.064;2023-02-11T12:25:51;18.25;;;13.38;;
12224;SDS011;6175;50.956;11.064;2023-02-11T12:28:30;17.73;;;11.65;;
12224;SDS011;6175;50.956;11.064;2023-02-11T12:31:12;20.25;;;13.63;;
12224;SDS011;6175;50.956;11.064;2023-02-11T12:34:00;16.92;;;12.90;;
12224;SDS011;6175;50.956;11.064;2023-02-11T12:36:49;18.13;;;12.68;;
12224;SDS011;6175;50.956;11.064;2023-02-11T12:39:25;17.73;;;12.82;;
12224;SDS011;6175;50.956;11.064;2023-02-11T12:42:30;17.08;;;12.07;;
12224;SDS011;6175;50.956;11.064;2023-02-11T12:45:26;14.80;;;11.70;;
12224;SDS011;6175;50.956;11.064;2023-02-11T12:48:04;17.45;;;12.18;;
12224;SDS011;6175;50.956;11.064;2023-02-11T12:50:48;19.58;;;11.93;;
12224;SDS011;6175;50.956;11.064;2023-02-11T12:53:34;15.80;;;12.07;;
12224;SDS011;6175;50.956;11.064;2023-02-11T12:56:12;15.90;;;11.85;;
12224;SDS011;6175;50.956;11.064;2023-02-11T12:58:43;15.88;;;11.77;;
12224;SDS011;6175;50.956;11.064;2023-02-11T13:01:17;16.80;;;11.88;;
12224;SDS011;6175;50.956;11.064;2023-02-11T13:03:47;16.88;;;11.65;;
12224;SDS011;6175;50.956;11.064;2023-02-11T13:06:16;16.58;;;12.50;;
12224;SDS011;6175;50.956;11.064;2023-02-11T13:08:47;15.40;;;11.90;;
12224;SDS011;6175;50.956;11.064;2023-02-11T13:11:19;19.00;;;13.00;;
12224;SDS011;6175;50.956;11.064;2023-02-11T13:13:50;16.85;;;12.50;;
12224;SDS011;6175;50.956;11.064;2023-02-11T13:16:26;18.75;;;12.02;;
12224;SDS011;6175;50.956;11.064;2023-02-11T13:19:00;17.08;;;11.90;;
12224;SDS011;6175;50.956;11.064;2023-02-11T13:21:50;15.50;;;11.80;;
12224;SDS011;6175;50.956;11.064;2023-02-11T13:24:26;16.58;;;12.32;;
12224;SDS011;6175;50.956;11.064;2023-02-11T13:27:00;16.15;;;12.32;;
12224;SDS011;6175;50.956;11.064;2023-02-11T13:29:38;17.30;;;12.48;;
12224;SDS011;6175;50.956;11.064;2023-02-11T13:32:28;16.75;;;11.48;;
12224;SDS011;6175;50.956;11.064;2023-02-11T13:35:40;17.83;;;12.43;;
12224;SDS011;6175;50.956;11.064;2023-02-11T13:38:16;15.73;;;11.77;;
12224;SDS011;6175;50.956;11.064;2023-02-11T13:40:56;14.65;;;12.32;;
12224;SDS011;6175;50.956;11.064;2023-02-11T13:43:26;17.13;;;12.50;;
12224;SDS011;6175;50.956;11.064;2023-02-11T13:45:56;20.33;;;13.60;;
12224;SDS011;6175;50.956;11.064;2023-02-11T13:48:26;16.13;;;11.13;;
12224;SDS011;6175;50.956;11.064;2023-02-11T13:50:56;17.38;;;11.93;;
12224;SDS011;6175;50.956;11.064;2023-02-11T13:53:26;16.65;;;12.52;;
12224;SDS011;6175;50.956;11.064;2023-02-11T13:56:03;16.83;;;12.75;;
12224;SDS011;6175;50.956;11.064;2023-02-11T13:58:33;15.23;;;11.65;;
12224;SDS011;6175;50.956;11.064;2023-02-11T14:01:04;17.77;;;12.73;;
12224;SDS011;6175;50.956;11.064;2023-02-11T14:03:33;17.50;;;12.10;;
12224;SDS011;6175;50.956;11.064;2023-02-11T14:06:20;15.68;;;12.60;;
12224;SDS011;6175;50.956;11.064;2023-02-11T14:12:20;15.85;;;12.95;;
12224;SDS011;6175;50.956;11.064;2023-02-11T14:15:16;17.38;;;12.85;;
12224;SDS011;6175;50.956;11.064;2023-02-11T14:17:50;17.55;;;12.68;;
12224;SDS011;6175;50.956;11.064;2023-02-11T14:20:39;18.23;;;13.10;;
12224;SDS011;6175;50.956;11.064;2023-02-11T14:23:24;17.55;;;13.02;;
12224;SDS011;6175;50.956;11.064;2023-02-11T14:26:00;18.15;;;13.23;;
12224;SDS011;6175;50.956;11.064;2023-02-11T14:28:36;18.73;;;14.25;;
12224;SDS011;6175;50.956;11.064;2023-02-11T14:31:06;21.73;;;13.85;;
12224;SDS011;6175;50.956;11.064;2023-02-11T14:33:46;20.30;;;14.52;;
12224;SDS011;6175;50.956;11.064;2023-02-11T14:39:31;18.85;;;12.55;;
12224;SDS011;6175;50.956;11.064;2023-02-11T14:42:08;19.58;;;13.05;;
12224;SDS011;6175;50.956;11.064;2023-02-11T14:44:44;18.63;;;12.77;;
12224;SDS011;6175;50.956;11.064;2023-02-11T14:47:12;18.70;;;12.70;;
12224;SDS011;6175;50.956;11.064;2023-02-11T14:49:44;17.88;;;13.23;;
12224;SDS011;6175;50.956;11.064;2023-02-11T14:52:17;17.15;;;13.60;;
12224;SDS011;6175;50.956;11.064;2023-02-11T14:54:51;21.98;;;13.95;;
12224;SDS011;6175;50.956;11.064;2023-02-11T14:57:27;18.00;;;14.00;;
12224;SDS011;6175;50.956;11.064;2023-02-11T14:59:55;19.13;;;14.48;;